createdAt,value
2022-08-01T00:00:26.057Z,78425.53
2022-08-01T00:02:56.621Z,78402.66
2022-08-01T00:05:26.635Z,78420.47
2022-08-01T00:07:56.503Z,78415.75
2022-08-01T00:10:27.219Z,78430.00
2022-08-01T00:12:57.685Z,78419.91
2022-08-01T00:15:28.238Z,78430.44
2022-08-01T00:17:58.619Z,78429.25
2022-08-01T00:20:30.364Z,78432.50
2022-08-01T00:23:01.568Z,78430.47
2022-08-01T00:25:34.622Z,78436.44
2022-08-01T00:28:06.763Z,78448.78
2022-08-01T00:30:37.522Z,78441.72
2022-08-01T00:33:07.406Z,78450.94
2022-08-01T00:35:38.885Z,78459.97
2022-08-01T00:38:09.631Z,78441.50
2022-08-01T00:40:39.402Z,78445.91
2022-08-01T00:43:09.511Z,78467.72
2022-08-01T00:45:40.530Z,78447.94
2022-08-01T00:48:10.691Z,78439.63
2022-08-01T00:50:42.443Z,78455.25
2022-08-01T00:53:19.040Z,78444.19
2022-08-01T00:55:51.399Z,78430.63
2022-08-01T00:58:21.909Z,78437.59
2022-08-01T01:00:56.801Z,78430.84
2022-08-01T01:03:57.138Z,78423.50
2022-08-01T01:06:47.712Z,78454.84
2022-08-01T01:09:20.483Z,78454.75
2022-08-01T01:12:12.042Z,78455.91
2022-08-01T01:15:26.517Z,78457.44
2022-08-01T01:18:10.253Z,78467.81
2022-08-01T01:20:44.567Z,78449.47
2022-08-01T01:23:28.203Z,78467.41
2022-08-01T01:26:42.427Z,78450.78
2022-08-01T01:29:28.972Z,78453.13
2022-08-01T01:32:10.564Z,78458.16
2022-08-01T01:34:46.726Z,78439.50
2022-08-01T01:37:24.792Z,78464.94
2022-08-01T01:39:58.090Z,78463.28
2022-08-01T01:42:30.715Z,78464.06
2022-08-01T01:45:03.433Z,78450.19
2022-08-01T01:47:35.647Z,78461.97
2022-08-01T01:50:09.255Z,78469.91
2022-08-01T01:52:44.176Z,78469.72
2022-08-01T01:55:16.496Z,78473.16
2022-08-01T01:57:48.936Z,78465.91
2022-08-01T02:00:20.160Z,78477.88
2022-08-01T07:30:38.648Z,78597.91
2022-08-01T07:33:09.852Z,78593.50
2022-08-01T07:35:41.862Z,78597.84
2022-08-01T07:38:12.906Z,78588.78
2022-08-01T07:40:43.257Z,78600.59
2022-08-01T07:43:14.460Z,78585.56
2022-08-01T07:45:47.408Z,78585.94
2022-08-01T07:48:18.759Z,78594.47
2022-08-01T07:50:49.450Z,78595.41
2022-08-01T07:53:20.978Z,78592.31
2022-08-01T07:55:51.737Z,78590.53
2022-08-01T07:58:24.049Z,78585.38
2022-08-01T08:00:55.256Z,78586.19
2022-08-01T08:03:28.691Z,78585.31
2022-08-01T08:06:00.597Z,78563.06
2022-08-01T08:08:33.813Z,78582.53
2022-08-01T08:11:07.016Z,78580.59
2022-08-01T08:13:37.976Z,78560.78
2022-08-01T08:16:08.818Z,78572.06
2022-08-01T08:18:41.699Z,78572.59
2022-08-01T08:21:13.023Z,78572.47
2022-08-01T08:24:17.216Z,78581.78
2022-08-01T08:26:48.096Z,78564.06
2022-08-01T08:29:24.577Z,78578.59
2022-08-01T08:31:57.376Z,78582.75
2022-08-01T08:34:30.602Z,78567.41
2022-08-01T08:37:01.738Z,78573.69
2022-08-01T08:39:41.943Z,78572.94
2022-08-01T08:42:15.458Z,78572.75
2022-08-01T08:44:47.360Z,78561.81
2022-08-01T08:47:20.856Z,78573.38
2022-08-01T08:49:58.819Z,78565.25
2022-08-01T08:52:30.956Z,78558.22
2022-08-01T08:55:03.696Z,78554.56
2022-08-01T08:57:34.256Z,78549.84
2022-08-01T09:00:10.337Z,78549.34
2022-08-01T09:02:45.490Z,78564.84
2022-08-01T09:05:19.705Z,78556.81
2022-08-01T09:07:51.619Z,78560.16
2022-08-01T09:10:24.477Z,78554.00
2022-08-01T09:13:08.383Z,78549.94
2022-08-01T09:15:51.223Z,78559.91
2022-08-01T09:18:38.217Z,78554.31
2022-08-01T09:21:10.530Z,78546.91
2022-08-01T09:23:55.033Z,78547.72
2022-08-01T09:26:39.408Z,78516.13
2022-08-01T09:29:37.349Z,78543.13
2022-08-01T09:32:14.106Z,78538.84
2022-08-01T09:34:50.860Z,78533.31
2022-08-01T09:37:37.412Z,78535.63
2022-08-01T09:40:11.940Z,78537.84
2022-08-01T09:42:45.577Z,78533.25
2022-08-01T09:45:40.998Z,78519.81
2022-08-01T09:48:15.896Z,78525.56
2022-08-01T09:50:49.256Z,78528.28
2022-08-01T09:53:30.290Z,78516.59
2022-08-01T09:56:13.622Z,78519.22
2022-08-01T09:59:06.577Z,78520.03
2022-08-01T10:01:53.688Z,78511.13
2022-08-01T10:04:27.896Z,78522.56
2022-08-01T10:07:09.572Z,78529.38
2022-08-01T10:09:41.172Z,78522.63
2022-08-01T10:12:15.049Z,78525.78
2022-08-01T10:14:50.583Z,78525.94
2022-08-01T10:17:23.257Z,78512.16
2022-08-01T10:19:58.344Z,78523.06
2022-08-01T10:22:35.660Z,78500.63
2022-08-01T10:25:08.869Z,78516.91
2022-08-01T10:27:41.897Z,78509.41
2022-08-01T10:30:23.422Z,78490.22
2022-08-01T10:33:03.136Z,78518.34
2022-08-01T10:35:47.333Z,78504.38
2022-08-01T10:38:19.929Z,78514.97
2022-08-01T10:40:56.137Z,78517.59
2022-08-01T10:43:27.658Z,78511.41
2022-08-01T10:45:59.538Z,78500.72
2022-08-01T10:48:46.617Z,78516.66
2022-08-01T10:51:19.332Z,78514.91
2022-08-01T10:53:54.448Z,78510.00
2022-08-01T10:56:27.551Z,78506.19
2022-08-01T10:59:11.897Z,78506.56
2022-08-01T11:01:44.850Z,78492.81
2022-08-01T11:04:18.254Z,78501.13
2022-08-01T11:07:09.904Z,78471.44
2022-08-01T11:09:51.889Z,78490.34
2022-08-01T11:12:25.585Z,78467.38
2022-08-01T11:15:03.596Z,78495.41
2022-08-01T11:17:50.426Z,78485.56
2022-08-01T11:20:36.168Z,78482.94
2022-08-01T11:23:16.504Z,78487.19
2022-08-01T11:26:05.964Z,78477.63
2022-08-01T11:29:04.730Z,78481.47
2022-08-01T11:31:37.440Z,78480.75
2022-08-01T11:34:08.939Z,78477.97
2022-08-01T11:39:35.487Z,78474.13
2022-08-01T11:42:23.459Z,78480.53
2022-08-01T11:44:59.619Z,78474.81
2022-08-01T11:47:56.997Z,78469.91
2022-08-01T11:50:32.751Z,78470.28
2022-08-01T11:53:11.271Z,78474.19
2022-08-01T11:55:52.260Z,78469.81
2022-08-01T11:58:56.937Z,78463.84
2022-08-01T12:01:28.137Z,78473.81
2022-08-01T12:03:59.699Z,78469.28
2022-08-01T12:06:32.257Z,78452.47
2022-08-01T12:09:20.696Z,78452.22
2022-08-01T12:11:52.097Z,78459.84
2022-08-01T12:14:25.222Z,78448.31
2022-08-01T12:16:57.340Z,78449.88
2022-08-01T12:19:28.468Z,78450.53
2022-08-01T12:22:10.200Z,78451.44
2022-08-01T12:24:42.328Z,78429.19
2022-08-01T12:27:15.176Z,78453.38
2022-08-01T12:29:49.617Z,78453.41
2022-08-01T12:32:39.696Z,78456.47
2022-08-01T12:35:18.531Z,78436.97
2022-08-01T12:37:52.253Z,78452.88
2022-08-01T12:40:28.783Z,78449.47
2022-08-01T12:43:06.098Z,78427.16
2022-08-01T12:45:54.400Z,78468.19
2022-08-01T12:48:29.827Z,78452.47
2022-08-01T12:51:03.899Z,78445.31
2022-08-01T12:53:41.068Z,78481.25
2022-08-01T12:56:13.216Z,78478.75
2022-08-01T12:58:45.409Z,78468.03
2022-08-01T13:01:16.738Z,78449.09
2022-08-01T13:04:07.114Z,78471.72
2022-08-01T13:06:38.692Z,78475.31
2022-08-01T13:09:11.937Z,78469.69
2022-08-01T13:11:58.955Z,78468.06
2022-08-01T13:14:35.257Z,78471.09
2022-08-01T13:17:14.037Z,78464.16
2022-08-01T13:19:48.297Z,78470.84
2022-08-01T13:22:18.769Z,78467.94
2022-08-01T13:24:50.818Z,78471.31
2022-08-01T13:27:32.818Z,78473.78
2022-08-01T13:30:15.763Z,78469.88
2022-08-01T13:32:48.017Z,78454.50
2022-08-01T13:35:25.698Z,78464.09
2022-08-01T13:37:59.903Z,78472.53
2022-08-01T13:40:32.460Z,78473.91
2022-08-01T13:43:04.297Z,78476.44
2022-08-01T13:45:36.537Z,78469.06
2022-08-01T13:48:13.064Z,78472.06
2022-08-01T13:51:02.176Z,78451.38
2022-08-01T13:53:41.057Z,78466.38
2022-08-01T13:56:11.969Z,78460.03
2022-08-01T13:58:43.465Z,78475.88
2022-08-01T14:01:16.481Z,78424.97
2022-08-01T14:03:48.979Z,78471.72
2022-08-01T14:06:21.249Z,78473.38
2022-08-01T14:08:52.860Z,78477.19
2022-08-01T14:11:24.259Z,78450.41
2022-08-01T14:13:55.499Z,78469.81
2022-08-01T14:16:27.377Z,78462.34
2022-08-01T14:18:57.697Z,78473.63
2022-08-01T14:21:28.537Z,78466.63
2022-08-01T14:23:59.130Z,78477.59
2022-08-01T14:26:30.569Z,78480.28
2022-08-01T14:29:01.929Z,78471.31
2022-08-01T14:31:34.458Z,78480.97
2022-08-01T14:34:05.898Z,78482.44
2022-08-01T14:36:38.429Z,78486.19
2022-08-01T14:39:14.990Z,78473.19
2022-08-01T14:41:48.057Z,78480.28
2022-08-01T14:44:20.018Z,78477.59
2022-08-01T14:46:57.293Z,78472.34
2022-08-01T14:49:28.956Z,78479.03
2022-08-01T14:52:01.056Z,78482.91
2022-08-01T14:54:32.097Z,78491.22
2022-08-01T14:57:03.738Z,78503.22
2022-08-01T14:59:35.570Z,78503.47
2022-08-01T15:02:07.076Z,78507.81
2022-08-01T15:04:37.907Z,78507.63
2022-08-01T15:07:08.418Z,78509.25
2022-08-01T15:09:39.857Z,78512.97
2022-08-01T15:12:10.781Z,78508.88
2022-08-01T15:14:51.099Z,78474.31
2022-08-01T15:17:24.347Z,78506.59
2022-08-01T15:19:56.740Z,78499.72
2022-08-01T15:22:29.579Z,78502.00
2022-08-01T15:25:02.657Z,78507.19
2022-08-01T15:27:34.640Z,78509.97
2022-08-01T15:30:06.657Z,78510.78
2022-08-01T15:32:38.336Z,78501.94
2022-08-01T15:35:12.777Z,78497.66
2022-08-01T15:37:45.099Z,78475.13
2022-08-01T15:40:15.538Z,78496.72
2022-08-01T15:42:47.417Z,78510.16
2022-08-01T15:45:45.810Z,78506.72
2022-08-01T15:48:13.979Z,78510.50
2022-08-01T15:50:44.741Z,78513.66
2022-08-01T15:53:15.364Z,78515.22
2022-08-01T15:55:52.426Z,78517.25
2022-08-01T15:58:24.139Z,78508.38
2022-08-01T16:00:54.938Z,78514.91
2022-08-01T16:03:27.776Z,78533.72
2022-08-01T16:05:59.539Z,78511.34
2022-08-01T16:08:31.856Z,78528.56
2022-08-01T16:11:02.664Z,78521.53
2022-08-01T16:13:33.520Z,78520.31
2022-08-01T16:16:06.577Z,78526.97
2022-08-01T16:18:37.336Z,78533.66
2022-08-01T16:21:09.537Z,78545.00
2022-08-01T16:23:40.896Z,78508.22
2022-08-01T16:26:27.366Z,78539.81
2022-08-01T16:29:00.216Z,78537.16
2022-08-01T16:31:53.825Z,78542.75
2022-08-01T16:34:23.585Z,78526.28
2022-08-01T16:36:57.016Z,78542.25
2022-08-01T16:39:28.816Z,78548.03
2022-08-01T16:42:01.259Z,78539.31
2022-08-01T16:44:34.083Z,78549.09
2022-08-01T16:47:07.081Z,78539.31
2022-08-01T16:49:42.082Z,78554.53
2022-08-01T16:52:13.937Z,78546.94
2022-08-01T16:54:44.817Z,78549.63
2022-08-01T16:57:15.995Z,78540.91
2022-08-01T16:59:47.178Z,78533.00
2022-08-01T17:02:18.038Z,78530.97
2022-08-01T17:04:48.497Z,78527.78
2022-08-01T17:07:19.171Z,78534.41
2022-08-01T17:09:51.978Z,78546.59
2022-08-01T17:12:22.762Z,78526.78
2022-08-01T17:14:55.697Z,78540.94
2022-08-01T17:17:31.019Z,78545.59
2022-08-01T17:20:01.861Z,78544.47
2022-08-01T17:22:32.497Z,78547.47
2022-08-01T17:25:03.420Z,78540.38
2022-08-01T17:27:34.977Z,78549.66
2022-08-01T17:30:07.657Z,78545.50
2022-08-01T17:32:41.701Z,78539.09
2022-08-01T17:35:13.698Z,78528.31
2022-08-01T17:37:44.697Z,78535.63
2022-08-01T17:40:38.973Z,78536.78
2022-08-01T17:43:08.661Z,78516.66
2022-08-01T17:45:50.924Z,78543.28
2022-08-01T17:48:23.096Z,78522.00
2022-08-01T17:50:55.857Z,78503.66
2022-08-01T17:53:26.969Z,78538.75
2022-08-01T17:56:00.897Z,78536.34
2022-08-01T17:58:36.812Z,78518.88
2022-08-01T18:01:26.965Z,78533.31
2022-08-01T18:04:00.297Z,78539.09
2022-08-01T18:06:31.862Z,78540.31
2022-08-01T18:09:11.072Z,78532.31
2022-08-01T18:11:42.648Z,78539.94
2022-08-01T18:14:13.580Z,78540.50
2022-08-01T18:16:47.057Z,78520.88
2022-08-01T18:19:20.135Z,78534.56
2022-08-01T18:21:51.858Z,78545.25
2022-08-01T18:24:24.089Z,78511.63
2022-08-01T18:26:57.057Z,78543.22
2022-08-01T18:29:48.323Z,78542.09
2022-08-01T18:32:19.698Z,78529.94
2022-08-01T18:34:50.418Z,78529.28
2022-08-01T18:37:21.257Z,78520.50
2022-08-01T18:39:55.778Z,78531.84
2022-08-01T18:42:26.776Z,78527.38
2022-08-01T18:44:57.496Z,78524.94
2022-08-01T18:47:28.856Z,78519.56
2022-08-01T18:50:00.199Z,78531.25
2022-08-01T18:52:31.612Z,78536.84
2022-08-01T18:55:03.370Z,78489.50
2022-08-01T18:57:34.210Z,78495.06
2022-08-01T19:00:06.503Z,78524.06
2022-08-01T19:02:36.797Z,78485.41
2022-08-01T19:05:08.797Z,78516.41
2022-08-01T19:08:05.045Z,78518.63
2022-08-01T19:10:28.716Z,78525.53
2022-08-01T19:12:58.512Z,78534.19
2022-08-01T19:15:29.321Z,78521.81
2022-08-01T19:17:59.199Z,78523.28
2022-08-01T19:20:28.957Z,78504.63
2022-08-01T19:22:59.036Z,78516.94
2022-08-01T19:25:30.330Z,78505.59
2022-08-01T19:28:01.828Z,78515.50
2022-08-01T19:30:35.279Z,78510.38
2022-08-01T19:33:05.877Z,78509.19
2022-08-01T19:35:36.618Z,78506.09
2022-08-01T19:38:07.398Z,78512.69
2022-08-01T19:40:38.596Z,78509.66
2022-08-01T19:43:11.918Z,78514.97
2022-08-01T19:45:46.317Z,78509.19
2022-08-01T19:48:17.857Z,78495.19
2022-08-01T19:50:50.258Z,78476.00
2022-08-01T19:53:26.017Z,78487.75
2022-08-01T19:55:57.859Z,78489.72
2022-08-01T19:58:29.199Z,78475.88
2022-08-01T20:00:59.958Z,78456.97
2022-08-01T20:03:34.224Z,78473.56
2022-08-01T20:06:06.637Z,78467.22
2022-08-01T20:08:38.477Z,78462.09
2022-08-01T20:11:14.631Z,78452.41
2022-08-01T20:13:46.712Z,78465.91
2022-08-01T20:16:17.418Z,78468.69
2022-08-01T20:18:47.978Z,78454.28
2022-08-01T20:21:21.497Z,78445.53
2022-08-01T20:23:54.136Z,78452.13
2022-08-01T20:26:34.879Z,78446.03
2022-08-01T20:29:07.498Z,78429.78
2022-08-01T20:31:44.333Z,78462.03
2022-08-01T20:34:17.020Z,78458.88
2022-08-01T20:36:54.783Z,78438.66
2022-08-01T20:39:28.671Z,78461.44
2022-08-01T20:41:59.496Z,78436.09
2022-08-01T20:44:32.844Z,78416.66
2022-08-01T20:47:06.459Z,78409.97
2022-08-01T20:49:39.279Z,78450.53
2022-08-01T20:52:12.031Z,78432.56
2022-08-01T20:54:45.218Z,78437.94
2022-08-01T20:57:26.694Z,78427.28
2022-08-01T21:00:03.258Z,78444.22
2022-08-01T21:02:50.306Z,78448.34
2022-08-01T21:05:31.347Z,78404.59
2022-08-01T21:08:15.270Z,78426.28
2022-08-01T21:10:47.893Z,78407.28
2022-08-01T21:13:24.767Z,78444.75
2022-08-01T21:16:22.389Z,78428.13
2022-08-01T21:19:18.707Z,78424.38
2022-08-01T21:22:26.791Z,78431.13
2022-08-01T21:25:06.684Z,78434.69
2022-08-01T21:27:39.477Z,78440.13
2022-08-01T21:30:10.728Z,78449.00
2022-08-01T21:32:44.832Z,78404.06
2022-08-01T21:35:16.236Z,78414.00
2022-08-01T21:37:52.391Z,78429.63
2022-08-01T21:40:26.932Z,78448.47
2022-08-01T21:42:57.409Z,78408.69
2022-08-01T21:45:30.363Z,78437.22
2022-08-01T21:48:01.701Z,78434.16
2022-08-01T21:50:40.691Z,78420.53
2022-08-01T21:53:32.046Z,78443.94
2022-08-01T21:56:14.960Z,78429.53
2022-08-01T21:59:11.937Z,78434.06
2022-08-01T22:02:03.409Z,78447.44
2022-08-01T22:04:54.779Z,78440.75
2022-08-01T22:07:28.319Z,78432.28
2022-08-01T22:09:59.490Z,78423.19
2022-08-01T22:12:28.970Z,78436.22
2022-08-01T22:15:00.022Z,78415.38
2022-08-01T22:17:30.795Z,78428.88
2022-08-01T22:20:01.398Z,78402.03
2022-08-01T22:22:51.910Z,78423.75
2022-08-01T22:25:23.653Z,78415.75
2022-08-01T22:28:05.764Z,78398.75
2022-08-01T22:30:43.941Z,78425.47
2022-08-01T22:33:16.292Z,78428.56
2022-08-01T22:35:48.648Z,78420.66
2022-08-01T22:38:24.348Z,78422.22
2022-08-01T22:41:05.329Z,78416.09
2022-08-01T22:43:43.573Z,78423.09
2022-08-01T22:46:26.445Z,78421.19
2022-08-01T22:49:37.461Z,78423.63
2022-08-01T22:52:30.627Z,78423.28
2022-08-01T22:55:07.740Z,78417.13
2022-08-01T22:57:53.560Z,78422.97
2022-08-01T23:00:24.860Z,78426.63
2022-08-01T23:03:05.918Z,78418.75
2022-08-01T23:05:41.718Z,78422.50
2022-08-01T23:08:25.088Z,78386.25
2022-08-01T23:10:56.940Z,78426.03
2022-08-01T23:13:26.931Z,78397.41
2022-08-01T23:15:57.493Z,78416.56
2022-08-01T23:18:28.873Z,78414.06
2022-08-01T23:21:01.533Z,78422.97
2022-08-01T23:23:34.037Z,78426.25
2022-08-01T23:26:03.326Z,78422.16
2022-08-01T23:28:34.125Z,78406.28
2022-08-01T23:31:05.331Z,78412.13
2022-08-01T23:33:35.605Z,78419.13
2022-08-01T23:36:07.579Z,78411.31
2022-08-01T23:38:37.495Z,78407.75
2022-08-01T23:41:15.874Z,78412.25
2022-08-01T23:43:51.972Z,78431.44
2022-08-01T23:46:22.577Z,78409.66
2022-08-01T23:48:52.543Z,78411.94
2022-08-01T23:51:24.878Z,78409.66
2022-08-01T23:53:55.007Z,78416.19
2022-08-01T23:56:25.591Z,78405.19
2022-08-01T23:58:56.463Z,78429.03
